createdAt,value
2019-02-08T00:03:27.142Z,32.33
2019-02-08T00:05:56.550Z,33.93
2019-02-08T00:11:30.850Z,24.40
2019-02-08T00:17:01.927Z,29.13
2019-02-08T00:19:42.264Z,25.53
2019-02-08T00:22:11.001Z,22.90
2019-02-08T00:27:42.485Z,20.57
2019-02-08T00:30:32.858Z,23.93
2019-02-08T00:33:01.256Z,22.23
2019-02-08T00:35:29.770Z,23.77
2019-02-08T00:37:59.112Z,22.13
2019-02-08T00:40:28.802Z,22.47
2019-02-08T00:43:17.763Z,28.30
2019-02-08T00:45:47.087Z,28.50
2019-02-08T00:48:16.406Z,27.87
2019-02-08T00:50:45.725Z,26.30
2019-02-08T00:53:14.144Z,26.47
2019-02-08T00:55:42.819Z,25.27
2019-02-08T00:58:11.391Z,24.50
2019-02-08T01:00:40.718Z,28.00
2019-02-08T01:03:10.601Z,22.00
2019-02-08T01:05:39.926Z,25.27
2019-02-08T01:11:11.187Z,25.30
2019-02-08T01:13:40.498Z,26.40
2019-02-08T01:16:09.806Z,28.50
2019-02-08T01:18:39.134Z,27.97
2019-02-08T01:21:09.104Z,25.60
2019-02-08T01:23:41.268Z,29.73
2019-02-08T01:26:09.017Z,26.83
2019-02-08T01:28:38.341Z,25.80
2019-02-08T01:31:06.756Z,28.63
2019-02-08T01:33:36.072Z,30.13
2019-02-08T01:36:05.388Z,28.80
2019-02-08T01:38:33.999Z,28.00
2019-02-08T01:41:03.612Z,30.23
2019-02-08T01:43:32.919Z,26.27
2019-02-08T01:46:02.268Z,22.87
2019-02-08T01:48:31.587Z,23.37
2019-02-08T01:51:00.894Z,25.80
2019-02-08T01:53:30.199Z,26.33
2019-02-08T01:56:11.733Z,23.73
2019-02-08T01:58:40.255Z,20.97
2019-02-08T02:01:08.672Z,23.07
2019-02-08T02:03:37.188Z,20.70
2019-02-08T02:06:06.492Z,24.73
2019-02-08T02:08:35.003Z,20.87
2019-02-08T02:11:04.462Z,26.57
2019-02-08T02:13:33.035Z,22.23
2019-02-08T02:16:04.100Z,21.70
2019-02-08T02:18:51.757Z,24.10
2019-02-08T02:21:21.096Z,21.10
2019-02-08T02:23:55.976Z,20.50
2019-02-08T02:26:51.287Z,22.50
2019-02-08T02:29:19.795Z,21.40
2019-02-08T02:31:48.203Z,23.00
2019-02-08T02:34:17.601Z,24.10
2019-02-08T02:36:47.017Z,23.70
2019-02-08T02:39:16.339Z,21.83
2019-02-08T02:41:45.652Z,22.43
2019-02-08T02:44:15.002Z,24.60
2019-02-08T02:46:44.304Z,26.90
2019-02-08T02:49:13.620Z,25.53
2019-02-08T02:51:42.146Z,23.00
2019-02-08T02:54:11.476Z,22.93
2019-02-08T02:56:40.016Z,24.57
2019-02-08T02:59:08.635Z,28.83
2019-02-08T03:01:38.059Z,27.00
2019-02-08T03:04:07.555Z,26.30
2019-02-08T03:06:36.853Z,26.00
2019-02-08T03:12:09.775Z,30.30
2019-02-08T03:14:38.228Z,31.67
2019-02-08T03:17:07.487Z,28.33
2019-02-08T03:19:36.795Z,26.93
2019-02-08T03:22:06.108Z,27.90
2019-02-08T03:24:34.653Z,28.63
2019-02-08T03:27:03.364Z,32.47
2019-02-08T03:29:32.676Z,30.33
2019-02-08T03:32:01.985Z,30.13
2019-02-08T03:34:31.363Z,31.40
2019-02-08T03:37:00.681Z,36.07
2019-02-08T03:39:29.967Z,35.77
2019-02-08T03:41:59.280Z,33.73
2019-02-08T03:44:28.638Z,34.83
2019-02-08T03:46:57.946Z,30.47
2019-02-08T03:49:27.252Z,32.30
2019-02-08T03:51:56.557Z,28.27
2019-02-08T03:54:25.175Z,27.03
2019-02-08T03:56:53.679Z,32.53
2019-02-08T03:59:22.091Z,37.30
2019-02-08T04:01:51.394Z,49.90
2019-02-08T04:04:19.909Z,42.03
2019-02-08T04:06:49.232Z,40.83
2019-02-08T04:09:18.548Z,45.23
2019-02-08T04:11:47.861Z,43.37
2019-02-08T04:14:16.253Z,40.23
2019-02-08T04:16:44.661Z,39.87
2019-02-08T04:19:14.087Z,33.53
2019-02-08T04:21:43.410Z,37.30
2019-02-08T04:24:12.819Z,35.13
2019-02-08T04:26:42.133Z,34.07
2019-02-08T04:29:10.648Z,31.83
2019-02-08T04:31:39.979Z,28.70
2019-02-08T04:34:09.388Z,31.50
2019-02-08T04:36:38.711Z,27.03
2019-02-08T04:39:08.137Z,26.33
2019-02-08T04:41:36.550Z,31.43
2019-02-08T04:44:05.861Z,28.83
2019-02-08T04:46:35.175Z,28.43
2019-02-08T04:49:04.485Z,28.63
2019-02-08T04:51:33.800Z,32.40
2019-02-08T04:57:05.239Z,28.40
2019-02-08T04:59:34.534Z,30.37
2019-02-08T05:02:04.052Z,31.37
2019-02-08T05:04:32.562Z,30.97
2019-02-08T05:07:01.920Z,31.13
2019-02-08T05:09:30.427Z,29.83
2019-02-08T05:11:58.956Z,26.37
2019-02-08T05:14:27.522Z,30.23
2019-02-08T05:16:56.820Z,24.67
2019-02-08T05:19:26.144Z,25.97
2019-02-08T05:21:55.461Z,28.87
2019-02-08T05:24:24.762Z,25.63
2019-02-08T05:26:54.073Z,31.27
2019-02-08T05:29:22.482Z,30.37
2019-02-08T05:31:50.995Z,34.77
2019-02-08T05:34:20.321Z,35.77
2019-02-08T05:36:49.633Z,38.90
2019-02-08T05:39:18.947Z,32.07
2019-02-08T05:41:48.252Z,31.93
2019-02-08T05:44:17.566Z,35.93
2019-02-08T05:46:46.892Z,32.87
2019-02-08T05:49:16.208Z,31.43
2019-02-08T05:51:45.520Z,31.30
2019-02-08T05:54:14.856Z,33.80
2019-02-08T05:56:43.268Z,34.23
2019-02-08T05:59:31.151Z,29.37
2019-02-08T06:02:00.455Z,28.90
2019-02-08T06:04:40.963Z,28.57
2019-02-08T06:07:09.379Z,34.70
2019-02-08T06:09:49.245Z,33.00
2019-02-08T06:12:17.662Z,38.10
2019-02-08T06:14:47.053Z,35.47
2019-02-08T06:17:16.366Z,33.67
2019-02-08T06:19:56.566Z,31.60
2019-02-08T06:22:25.532Z,32.17
2019-02-08T06:27:56.895Z,28.63
2019-02-08T06:30:25.410Z,24.70
2019-02-08T06:32:54.926Z,19.63
2019-02-08T06:38:25.239Z,22.47
2019-02-08T06:40:53.846Z,23.00
2019-02-08T06:43:23.145Z,23.63
2019-02-08T06:45:52.460Z,24.43
2019-02-08T06:48:21.800Z,22.53
2019-02-08T06:50:51.212Z,22.70
2019-02-08T06:53:20.547Z,23.43
2019-02-08T06:55:53.777Z,23.67
2019-02-08T06:58:48.481Z,25.63
2019-02-08T07:01:36.471Z,23.27
2019-02-08T07:04:24.635Z,29.57
2019-02-08T07:07:04.923Z,27.00
2019-02-08T07:09:53.712Z,26.30
2019-02-08T07:12:42.103Z,222.43
2019-02-08T07:15:30.091Z,251.80
2019-02-08T07:18:17.958Z,42.90
2019-02-08T07:21:05.849Z,35.47
2019-02-08T07:23:53.794Z,377.60
2019-02-08T07:26:39.545Z,94.07
2019-02-08T07:29:28.571Z,24.77
2019-02-08T07:32:16.543Z,26.37
2019-02-08T07:35:04.633Z,31.47
2019-02-08T07:37:52.806Z,27.33
2019-02-08T07:40:42.860Z,26.10
2019-02-08T07:52:38.439Z,25.53
2019-02-08T07:58:18.782Z,22.63
2019-02-08T08:01:02.520Z,21.03
2019-02-08T08:04:06.275Z,20.70
2019-02-08T08:06:57.394Z,22.93
2019-02-08T08:09:54.597Z,18.30
2019-02-08T08:15:46.978Z,21.83
2019-02-08T08:27:38.642Z,22.13
2019-02-08T08:33:30.937Z,24.40
2019-02-08T08:39:42.881Z,24.07
2019-02-08T08:42:50.128Z,23.70
2019-02-08T08:45:57.373Z,25.00
2019-02-08T08:52:12.298Z,23.80
2019-02-08T08:55:19.432Z,24.40
2019-02-08T08:58:13.162Z,23.03
2019-02-08T09:00:54.782Z,24.80
2019-02-08T09:04:02.035Z,22.30
2019-02-08T09:07:16.177Z,26.13
2019-02-08T09:10:37.159Z,26.27
2019-02-08T09:13:44.462Z,27.67
2019-02-08T09:16:51.706Z,29.30
2019-02-08T09:19:47.773Z,23.13
2019-02-08T09:22:54.933Z,22.63
2019-02-08T09:26:02.069Z,19.80
2019-02-08T09:29:09.327Z,23.50
2019-02-08T09:35:34.059Z,26.07
2019-02-08T09:38:44.127Z,21.30
2019-02-08T09:41:43.535Z,29.30
2019-02-08T09:44:51.578Z,23.97
2019-02-08T09:47:58.841Z,21.70
2019-02-08T09:54:14.789Z,26.30
2019-02-08T09:57:22.181Z,17.60
2019-02-08T10:00:30.321Z,18.50
2019-02-08T10:03:38.776Z,19.73
2019-02-08T10:06:45.920Z,16.27
2019-02-08T10:09:53.309Z,17.40
2019-02-08T10:13:00.555Z,19.13
2019-02-08T10:16:07.801Z,21.83
2019-02-08T10:19:14.943Z,24.57
2019-02-08T10:22:22.255Z,19.17
2019-02-08T10:25:29.494Z,27.43
2019-02-08T10:28:36.750Z,20.70
2019-02-08T10:31:46.945Z,20.67
2019-02-08T10:34:55.093Z,19.73
2019-02-08T10:38:03.143Z,22.30
2019-02-08T10:41:10.451Z,21.43
2019-02-08T10:44:18.485Z,18.87
2019-02-08T10:47:25.731Z,19.97
2019-02-08T10:50:32.968Z,18.10
2019-02-08T10:53:40.224Z,16.53
2019-02-08T10:56:47.459Z,130.60
2019-02-08T10:59:54.722Z,56.80
2019-02-08T11:03:01.870Z,22.27
2019-02-08T11:06:09.211Z,22.13
2019-02-08T11:09:09.257Z,290.07
2019-02-08T11:12:18.189Z,83.53
2019-02-08T11:15:28.135Z,20.17
2019-02-08T11:21:14.989Z,18.47
2019-02-08T11:23:43.411Z,16.87
2019-02-08T11:26:12.829Z,14.37
2019-02-08T11:28:42.152Z,13.63
2019-02-08T11:31:11.634Z,15.93
2019-02-08T11:33:40.969Z,16.20
2019-02-08T11:38:53.325Z,16.87
2019-02-08T11:41:21.830Z,19.30
2019-02-08T11:43:51.152Z,17.33
2019-02-08T11:46:20.474Z,17.27
2019-02-08T11:48:49.921Z,17.13
2019-02-08T11:51:19.347Z,18.57
2019-02-08T11:53:47.871Z,22.30
2019-02-08T11:56:16.526Z,13.93
2019-02-08T11:58:45.051Z,18.67
2019-02-08T12:01:14.383Z,16.60
2019-02-08T12:03:43.708Z,14.17
2019-02-08T12:06:12.227Z,15.30
2019-02-08T12:08:41.544Z,15.63
2019-02-08T12:11:10.866Z,14.97
2019-02-08T12:13:40.180Z,16.57
2019-02-08T12:16:08.891Z,17.03
2019-02-08T12:18:37.414Z,15.37
2019-02-08T12:21:06.850Z,15.33
2019-02-08T12:23:36.265Z,15.83
2019-02-08T12:26:04.884Z,17.23
2019-02-08T12:28:34.220Z,21.47
2019-02-08T12:31:03.771Z,18.50
2019-02-08T12:33:33.082Z,13.53
2019-02-08T12:36:01.606Z,12.83
2019-02-08T12:38:30.215Z,14.77
2019-02-08T12:40:59.528Z,14.70
2019-02-08T12:43:28.153Z,16.07
2019-02-08T12:45:57.823Z,17.37
2019-02-08T12:48:27.150Z,19.53
2019-02-08T12:50:56.478Z,22.60
2019-02-08T12:53:25.811Z,14.27
2019-02-08T12:55:55.136Z,15.60
2019-02-08T12:58:24.462Z,16.23
2019-02-08T13:00:53.782Z,15.77
2019-02-08T13:03:22.294Z,15.23
2019-02-08T13:05:51.154Z,15.40
2019-02-08T13:08:19.726Z,19.80
2019-02-08T13:10:49.036Z,15.83
2019-02-08T13:13:18.446Z,16.63
2019-02-08T13:15:47.757Z,21.43
2019-02-08T13:18:17.071Z,20.83
2019-02-08T13:20:46.391Z,22.60
2019-02-08T13:23:15.707Z,19.63
2019-02-08T13:25:45.027Z,20.77
2019-02-08T13:28:13.741Z,17.47
2019-02-08T13:30:42.364Z,17.17
2019-02-08T13:33:10.784Z,17.00
2019-02-08T13:35:39.318Z,15.77
2019-02-08T13:38:08.655Z,17.30
2019-02-08T13:40:37.938Z,20.63
2019-02-08T13:43:07.252Z,19.43
2019-02-08T13:45:36.664Z,22.07
2019-02-08T13:48:06.507Z,25.10
2019-02-08T13:50:35.267Z,18.23
2019-02-08T13:53:04.023Z,19.03
2019-02-08T13:55:32.428Z,20.23
2019-02-08T13:58:01.658Z,17.13
2019-02-08T14:00:32.565Z,17.30
2019-02-08T14:03:01.196Z,19.60
2019-02-08T14:05:30.233Z,22.07
2019-02-08T14:07:59.554Z,19.63
2019-02-08T14:10:28.073Z,20.57
2019-02-08T14:12:57.507Z,25.47
2019-02-08T14:15:27.732Z,19.57
2019-02-08T14:17:56.233Z,16.23
2019-02-08T14:20:25.790Z,18.47
2019-02-08T14:22:55.267Z,17.53
2019-02-08T14:28:27.169Z,21.23
2019-02-08T14:30:56.635Z,17.60
2019-02-08T14:33:25.951Z,14.83
2019-02-08T14:35:55.903Z,23.30
2019-02-08T14:38:44.499Z,17.97
2019-02-08T14:41:13.819Z,17.83
2019-02-08T14:43:42.430Z,19.03
2019-02-08T14:46:11.751Z,18.17
2019-02-08T14:48:41.252Z,17.90
2019-02-08T14:51:09.888Z,21.53
2019-02-08T14:53:38.406Z,20.90
2019-02-08T14:56:07.816Z,18.20
2019-02-08T14:58:37.124Z,23.47
2019-02-08T15:01:06.449Z,21.07
2019-02-08T15:03:35.766Z,25.13
2019-02-08T15:06:05.195Z,24.47
2019-02-08T15:08:34.493Z,23.73
2019-02-08T15:11:03.927Z,24.37
2019-02-08T15:13:33.235Z,21.50
2019-02-08T15:16:01.850Z,23.30
2019-02-08T15:18:31.167Z,40.87
2019-02-08T15:21:00.474Z,21.90
2019-02-08T15:23:29.012Z,24.83
2019-02-08T15:25:58.331Z,18.53
2019-02-08T15:28:27.838Z,24.67
2019-02-08T15:30:57.142Z,24.83
2019-02-08T15:33:26.607Z,33.10
2019-02-08T15:35:55.925Z,26.33
2019-02-08T15:38:24.439Z,20.70
2019-02-08T15:40:54.512Z,25.30
2019-02-08T15:43:23.536Z,49.27
2019-02-08T15:45:57.561Z,52.30
2019-02-08T15:48:26.267Z,39.27
2019-02-08T15:50:55.584Z,30.73
2019-02-08T15:53:24.915Z,31.60
2019-02-08T15:55:56.936Z,23.27
2019-02-08T15:58:25.555Z,25.33
2019-02-08T16:00:54.977Z,27.60
2019-02-08T16:03:23.474Z,30.43
2019-02-08T16:05:52.802Z,36.87
2019-02-08T16:08:22.114Z,45.27
2019-02-08T16:10:51.558Z,53.20
2019-02-08T16:13:20.883Z,50.67
2019-02-08T16:15:50.221Z,52.47
2019-02-08T16:18:19.556Z,59.57
2019-02-08T16:20:48.869Z,58.60
2019-02-08T16:23:18.198Z,60.03
2019-02-08T16:25:47.504Z,66.87
2019-02-08T16:28:16.010Z,52.93
2019-02-08T16:30:45.414Z,49.47
2019-02-08T16:33:14.828Z,59.40
2019-02-08T16:35:44.245Z,69.77
2019-02-08T16:38:13.650Z,83.23
2019-02-08T16:40:43.078Z,105.10
2019-02-08T16:43:12.524Z,104.00
2019-02-08T16:48:43.866Z,107.53
2019-02-08T16:51:13.187Z,102.47
2019-02-08T16:53:41.712Z,89.87
2019-02-08T16:56:11.211Z,83.20
2019-02-08T16:58:40.529Z,90.93
2019-02-08T17:01:09.860Z,66.20
2019-02-08T17:03:39.180Z,62.70
2019-02-08T17:06:07.731Z,62.63
2019-02-08T17:08:36.240Z,74.33
2019-02-08T17:11:04.961Z,105.53
2019-02-08T17:13:34.275Z,116.03
2019-02-08T17:19:06.509Z,145.90
2019-02-08T17:21:35.836Z,140.13
2019-02-08T17:24:05.255Z,131.27
2019-02-08T17:26:34.600Z,132.57
2019-02-08T17:29:04.022Z,141.93
2019-02-08T17:31:33.340Z,141.97
2019-02-08T17:34:02.761Z,127.50
2019-02-08T17:36:32.090Z,122.33
2019-02-08T17:39:01.395Z,120.67
2019-02-08T17:41:30.007Z,89.13
2019-02-08T17:43:59.396Z,83.73
2019-02-08T17:46:28.733Z,88.40
2019-02-08T17:48:58.052Z,90.30
2019-02-08T17:51:27.410Z,99.67
2019-02-08T17:53:56.812Z,140.40
2019-02-08T17:56:26.128Z,157.60
2019-02-08T17:58:54.706Z,151.97
2019-02-08T18:01:24.014Z,137.20
2019-02-08T18:03:52.640Z,135.93
2019-02-08T18:06:21.946Z,133.17
2019-02-08T18:08:51.264Z,131.87
2019-02-08T18:11:19.717Z,154.43
2019-02-08T18:13:49.026Z,150.10
2019-02-08T18:16:18.428Z,145.13
2019-02-08T18:18:47.946Z,125.70
2019-02-08T18:21:17.306Z,110.03
2019-02-08T18:23:46.675Z,99.50
2019-02-08T18:26:15.987Z,89.13
2019-02-08T18:28:45.312Z,77.43
2019-02-08T18:31:13.928Z,67.77
2019-02-08T18:33:42.446Z,46.80
2019-02-08T18:36:11.762Z,48.40
2019-02-08T18:38:41.096Z,41.93
2019-02-08T18:41:10.412Z,36.70
2019-02-08T18:43:39.735Z,44.63
2019-02-08T18:46:09.038Z,43.80
2019-02-08T18:48:37.850Z,43.33
2019-02-08T18:51:07.183Z,50.90
2019-02-08T18:53:36.510Z,52.10
2019-02-08T18:56:05.112Z,64.00
2019-02-08T18:58:34.431Z,63.63
2019-02-08T19:04:06.157Z,78.80
2019-02-08T19:06:35.481Z,115.07
2019-02-08T19:09:07.497Z,120.43
2019-02-08T19:11:36.218Z,101.40
2019-02-08T19:17:07.101Z,83.33
2019-02-08T19:19:35.710Z,53.17
2019-02-08T19:24:46.390Z,32.77
2019-02-08T19:27:15.690Z,24.67
2019-02-08T19:29:45.033Z,23.80
2019-02-08T19:32:14.361Z,26.43
2019-02-08T19:34:43.688Z,23.83
2019-02-08T19:37:13.034Z,22.33
2019-02-08T19:39:42.351Z,24.17
2019-02-08T19:42:10.868Z,25.87
2019-02-08T19:44:39.280Z,25.13
2019-02-08T19:47:07.788Z,24.93
2019-02-08T19:49:37.105Z,25.17
2019-02-08T19:52:06.513Z,27.63
2019-02-08T19:54:35.849Z,31.40
2019-02-08T20:00:13.139Z,21.33
2019-02-08T20:02:41.779Z,27.23
2019-02-08T20:08:14.681Z,23.90
2019-02-08T20:10:45.806Z,24.27
2019-02-08T20:16:16.790Z,24.27
2019-02-08T20:18:46.132Z,20.90
2019-02-08T20:21:15.477Z,22.00
2019-02-08T20:23:44.903Z,25.27
2019-02-08T20:26:14.228Z,23.47
2019-02-08T20:28:43.551Z,24.90
2019-02-08T20:31:12.968Z,24.60
2019-02-08T20:33:42.281Z,27.20
2019-02-08T20:39:13.586Z,27.73
2019-02-08T20:41:42.923Z,20.90
2019-02-08T20:44:11.543Z,25.17
2019-02-08T20:46:40.064Z,23.47
2019-02-08T20:49:09.390Z,22.53
2019-02-08T20:51:38.710Z,23.87
2019-02-08T20:54:08.046Z,21.00
2019-02-08T20:56:37.378Z,22.77
2019-02-08T20:59:05.944Z,26.23
2019-02-08T21:01:35.367Z,21.70
2019-02-08T21:04:04.386Z,22.67
2019-02-08T21:06:32.896Z,24.30
2019-02-08T21:09:14.067Z,20.40
2019-02-08T21:11:42.588Z,24.93
2019-02-08T21:14:12.140Z,20.67
2019-02-08T21:16:42.361Z,18.70
2019-02-08T21:19:10.878Z,22.03
2019-02-08T21:21:40.288Z,23.70
2019-02-08T21:24:08.925Z,24.07
2019-02-08T21:26:37.436Z,21.43
2019-02-08T21:29:06.055Z,21.10
2019-02-08T21:31:34.470Z,24.83
2019-02-08T21:34:03.889Z,22.60
2019-02-08T21:36:38.790Z,20.63
2019-02-08T21:39:22.435Z,23.50
2019-02-08T21:41:51.750Z,24.70
2019-02-08T21:44:20.272Z,22.67
2019-02-08T21:46:48.780Z,21.87
2019-02-08T21:49:17.387Z,22.93
2019-02-08T21:51:46.308Z,21.70
2019-02-08T21:54:15.672Z,21.87
2019-02-08T21:56:44.983Z,26.67
2019-02-08T21:59:14.287Z,26.67
2019-02-08T22:01:55.270Z,28.27
2019-02-08T22:04:23.880Z,19.50
2019-02-08T22:06:53.223Z,23.67
2019-02-08T22:09:21.910Z,21.37
2019-02-08T22:11:51.234Z,20.20
2019-02-08T22:14:19.728Z,18.23
2019-02-08T22:16:48.248Z,21.50
2019-02-08T22:19:17.558Z,24.03
2019-02-08T22:21:46.872Z,22.93
2019-02-08T22:24:16.181Z,18.63
2019-02-08T22:26:45.490Z,22.87
2019-02-08T22:29:14.918Z,22.03
2019-02-08T22:31:43.326Z,23.73
2019-02-08T22:34:11.808Z,24.17
2019-02-08T22:36:40.462Z,26.17
2019-02-08T22:39:10.179Z,25.63
2019-02-08T22:41:38.790Z,23.40
2019-02-08T22:44:08.098Z,21.80
2019-02-08T22:46:37.395Z,22.20
2019-02-08T22:49:06.808Z,24.37
2019-02-08T22:51:36.108Z,25.97
2019-02-08T22:54:05.418Z,23.47
2019-02-08T22:56:34.746Z,24.17
2019-02-08T22:59:04.342Z,28.57
2019-02-08T23:04:18.986Z,27.93
2019-02-08T23:06:48.295Z,25.23
2019-02-08T23:09:36.977Z,22.47
2019-02-08T23:12:06.296Z,23.53
2019-02-08T23:14:35.600Z,22.13
2019-02-08T23:17:05.103Z,25.87
2019-02-08T23:19:34.415Z,27.97
2019-02-08T23:22:03.230Z,23.17
2019-02-08T23:24:31.757Z,27.10
2019-02-08T23:27:01.137Z,24.30
2019-02-08T23:29:30.663Z,25.63
2019-02-08T23:31:59.970Z,23.20
2019-02-08T23:34:29.286Z,21.57
2019-02-08T23:36:58.584Z,22.20
2019-02-08T23:39:27.932Z,25.17
2019-02-08T23:41:57.221Z,24.90
2019-02-08T23:44:26.534Z,20.07
2019-02-08T23:46:55.040Z,20.60
2019-02-08T23:49:24.358Z,19.43
2019-02-08T23:51:52.765Z,22.83
2019-02-08T23:54:22.079Z,19.90
2019-02-08T23:56:51.399Z,21.80
2019-02-08T23:59:20.727Z,22.47
